Time;durP1;ratioP1;P1;durP2;ratioP2;P2;SDS_P1;SDS_P2;PMS_P1;PMS_P2;Temp;Humidity;BMP_temperature;BMP_pressure;BME280_temperature;BME280_humidity;BME280_pressure;Samples;Min_cycle;Max_cycle;Signal;HPM_P1;HPM_P2
2022/11/02 00:01:49;;;;;;;;;;;;;;;10.87;100.00;100339.94;4472875;32;34902;-82
2022/11/02 00:04:35;;;;;;;;;;;;;;;11.41;100.00;100335.81;4480878;32;34048;-82
2022/11/02 00:07:21;;;;;;;;;;;;;;;10.16;100.00;100342.47;4483138;32;33637;-82
2022/11/02 00:10:09;;;;;;;;;;;;;;;10.30;100.00;100337.09;4472345;32;35229;-82
2022/11/02 00:12:55;;;;;;;;;;;;;;;10.30;100.00;100337.94;4471677;32;35014;-82
2022/11/02 00:15:41;;;;;;;;;;;;;;;10.13;100.00;100348.47;4471833;31;35117;-82
2022/11/02 00:18:30;;;;;;;;;;;;;;;10.63;100.00;100343.53;4484273;32;35752;-82
2022/11/02 00:21:17;;;;;;;;;;;;;;;10.99;100.00;100352.09;4472589;32;35150;-82
2022/11/02 00:24:04;;;;;;;;;;;;;;;11.85;100.00;100345.50;4471622;32;35691;-82
2022/11/02 00:26:54;;;;;;;;;;;;;;;11.75;100.00;100337.44;4472323;32;34153;-82
2022/11/02 00:29:40;;;;;;;;;;;;;;;12.32;100.00;100336.13;4471658;32;34887;-83
2022/11/02 00:32:26;;;;;;;;;;;;;;;12.06;100.00;100343.22;4483590;32;35930;-83
2022/11/02 00:35:13;;;;;;;;;;;;;;;11.88;100.00;100339.44;4484773;32;34884;-82
2022/11/02 00:37:59;;;;;;;;;;;;;;;11.82;100.00;100354.34;4484663;32;34175;-83
2022/11/02 00:40:46;;;;;;;;;;;;;;;11.88;100.00;100353.19;4484584;32;34591;-83
2022/11/02 00:43:34;;;;;;;;;;;;;;;11.83;100.00;100348.53;4472798;32;36187;-82
2022/11/02 00:46:20;;;;;;;;;;;;;;;11.58;100.00;100338.00;4483515;32;34864;-83
2022/11/02 00:49:07;;;;;;;;;;;;;;;11.71;100.00;100334.50;4482359;32;33620;-82
2022/11/02 00:51:53;;;;;;;;;;;;;;;11.86;100.00;100331.50;4483015;32;35008;-83
2022/11/02 00:54:41;;;;;;;;;;;;;;;12.37;100.00;100333.25;4483143;32;36174;-82
2022/11/02 00:57:27;;;;;;;;;;;;;;;12.88;100.00;100336.06;4471328;32;34834;-82
2022/11/02 01:00:14;;;;;;;;;;;;;;;12.78;100.00;100331.59;4483415;32;34179;-82
2022/11/02 01:03:01;;;;;;;;;;;;;;;12.99;100.00;100337.44;4470565;32;34574;-82
2022/11/02 01:05:48;;;;;;;;;;;;;;;13.01;100.00;100351.72;4460056;32;36111;-82
2022/11/02 01:08:34;;;;;;;;;;;;;;;12.71;100.00;100340.25;4483442;32;35957;-83
2022/11/02 01:11:21;;;;;;;;;;;;;;;12.69;100.00;100342.50;4471485;32;34204;-83
2022/11/02 01:14:08;;;;;;;;;;;;;;;12.88;100.00;100336.88;4463209;32;35750;-82
2022/11/02 01:16:56;;;;;;;;;;;;;;;13.21;100.00;100328.41;4472632;32;35073;-83
2022/11/02 01:19:43;;;;;;;;;;;;;;;13.26;100.00;100331.91;4467340;32;34936;-82
2022/11/02 01:22:30;;;;;;;;;;;;;;;12.64;100.00;100330.81;4466482;32;35006;-82
2022/11/02 01:25:16;;;;;;;;;;;;;;;13.12;100.00;100313.75;4466281;32;34588;-83
2022/11/02 01:28:04;;;;;;;;;;;;;;;12.42;100.00;100317.81;4465384;32;35179;-83
2022/11/02 01:30:50;;;;;;;;;;;;;;;12.62;100.00;100314.63;4456837;32;33774;-83
2022/11/02 01:33:37;;;;;;;;;;;;;;;12.40;100.00;100314.53;4468003;32;34043;-82
2022/11/02 01:36:23;;;;;;;;;;;;;;;12.44;100.00;100310.88;4455897;32;35021;-82
2022/11/02 01:39:11;;;;;;;;;;;;;;;12.46;100.00;100316.06;4467010;32;36116;-83
2022/11/02 01:41:57;;;;;;;;;;;;;;;12.36;100.00;100309.66;4462556;32;35461;-83
2022/11/02 01:44:43;;;;;;;;;;;;;;;12.15;100.00;100314.75;4455778;32;34172;-83
2022/11/02 01:47:31;;;;;;;;;;;;;;;12.57;100.00;100320.22;4468249;32;34963;-83
2022/11/02 01:50:19;;;;;;;;;;;;;;;12.30;100.00;100321.06;4457339;32;36143;-83
2022/11/02 01:53:06;;;;;;;;;;;;;;;12.58;100.00;100332.88;4455988;32;35771;-82
2022/11/02 01:55:52;;;;;;;;;;;;;;;13.04;100.00;100329.91;4456134;32;34074;-83
2022/11/02 01:58:39;;;;;;;;;;;;;;;12.83;100.00;100317.72;4456582;32;34984;-83
2022/11/02 02:01:25;;;;;;;;;;;;;;;12.45;100.00;100312.50;4456198;32;35270;-83
2022/11/02 02:04:12;;;;;;;;;;;;;;;12.95;100.00;100314.44;4458045;32;33868;-83
2022/11/02 02:06:58;;;;;;;;;;;;;;;13.28;100.00;100304.84;4445506;32;34174;-82
2022/11/02 02:09:45;;;;;;;;;;;;;;;13.20;100.00;100313.81;4457275;32;35893;-83
2022/11/02 02:12:38;;;;;;;;;;;;;;;12.80;100.00;100308.16;4468730;32;34172;-83
2022/11/02 02:15:27;;;;;;;;;;;;;;;12.81;100.00;100307.03;4456281;32;34840;-82
2022/11/02 02:18:24;;;;;;;;;;;;;;;12.66;100.00;100306.56;4456523;32;35028;-83
2022/11/02 02:21:14;;;;;;;;;;;;;;;12.45;100.00;100304.25;4483360;31;35655;-83
2022/11/02 02:24:08;;;;;;;;;;;;;;;12.96;100.00;100316.06;4471360;32;35957;-83
2022/11/02 02:26:54;;;;;;;;;;;;;;;12.62;100.00;100316.56;4469838;32;35752;-83
2022/11/02 02:29:58;;;;;;;;;;;;;;;12.94;100.00;100308.13;4483587;32;34312;-83
2022/11/02 02:32:52;;;;;;;;;;;;;;;12.73;100.00;100309.72;4482916;32;35016;-83
2022/11/02 02:35:41;;;;;;;;;;;;;;;12.68;100.00;100315.31;4469365;32;36023;-83
2022/11/02 02:38:54;;;;;;;;;;;;;;;12.62;100.00;100314.63;4482439;32;34957;-83
2022/11/02 02:41:42;;;;;;;;;;;;;;;12.71;100.00;100331.19;4468395;32;34137;-83
2022/11/02 02:44:30;;;;;;;;;;;;;;;12.99;100.00;100338.25;4469905;32;34913;-83
2022/11/02 02:47:17;;;;;;;;;;;;;;;13.29;100.00;100330.47;4479242;32;35966;-83
2022/11/02 02:50:05;;;;;;;;;;;;;;;13.19;100.00;100336.97;4468902;32;34925;-83
2022/11/02 02:52:51;;;;;;;;;;;;;;;13.40;100.00;100337.31;4469902;31;34930;-83
2022/11/02 02:55:51;;;;;;;;;;;;;;;13.01;100.00;100349.78;4459518;32;35869;-83
2022/11/02 02:58:39;;;;;;;;;;;;;;;11.72;100.00;100366.31;4471267;32;35285;-83
2022/11/02 03:01:24;;;;;;;;;;;;;;;12.71;100.00;100353.19;4458034;32;35964;-83
2022/11/02 03:04:11;;;;;;;;;;;;;;;12.06;100.00;100357.75;4469912;32;35289;-83
2022/11/02 03:06:58;;;;;;;;;;;;;;;12.32;100.00;100365.53;4469258;32;34596;-82
2022/11/02 03:09:51;;;;;;;;;;;;;;;10.08;100.00;100367.72;4471668;32;35261;-82
2022/11/02 03:12:40;;;;;;;;;;;;;;;10.72;100.00;100374.66;4469921;32;34791;-82
2022/11/02 03:15:36;;;;;;;;;;;;;;;11.30;100.00;100365.38;4483211;32;34174;-82
2022/11/02 03:18:29;;;;;;;;;;;;;;;11.11;100.00;100379.09;4460448;32;34849;-81
2022/11/02 03:21:25;;;;;;;;;;;;;;;11.83;100.00;100367.78;4470786;32;35230;-82
2022/11/02 03:24:13;;;;;;;;;;;;;;;12.30;100.00;100363.09;4461983;32;35716;-82
2022/11/02 03:27:11;;;;;;;;;;;;;;;12.72;100.00;100371.31;4483347;31;33865;-82
2022/11/02 03:30:04;;;;;;;;;;;;;;;11.88;100.00;100380.63;4471615;32;33812;-82
2022/11/02 03:32:57;;;;;;;;;;;;;;;12.17;100.00;100383.13;4471284;32;35265;-82
2022/11/02 03:35:54;;;;;;;;;;;;;;;12.42;100.00;100381.81;4482304;32;34879;-82
2022/11/02 03:38:51;;;;;;;;;;;;;;;12.44;100.00;100378.78;4483393;32;34137;-82
2022/11/02 03:41:38;;;;;;;;;;;;;;;12.51;100.00;100371.75;4470795;32;35782;-82
2022/11/02 03:44:25;;;;;;;;;;;;;;;12.62;100.00;100368.78;4460615;32;35212;-82
2022/11/02 03:47:13;;;;;;;;;;;;;;;12.47;100.00;100373.47;4470142;32;34997;-82
2022/11/02 03:50:01;;;;;;;;;;;;;;;12.42;100.00;100362.59;4473050;32;33593;-82
2022/11/02 03:52:52;;;;;;;;;;;;;;;12.55;100.00;100367.28;4473191;32;35596;-82
2022/11/02 03:55:40;;;;;;;;;;;;;;;12.40;100.00;100367.56;4483614;31;35299;-82
2022/11/02 03:58:26;;;;;;;;;;;;;;;12.99;100.00;100371.28;4471752;32;35140;-82
2022/11/02 04:01:13;;;;;;;;;;;;;;;13.08;100.00;100381.56;4483369;32;34310;-82
2022/11/02 04:03:59;;;;;;;;;;;;;;;13.14;100.00;100381.12;4472531;32;34963;-83
2022/11/02 04:06:46;;;;;;;;;;;;;;;12.84;100.00;100382.63;4483949;32;35333;-82
2022/11/02 04:09:34;;;;;;;;;;;;;;;13.16;100.00;100391.81;4470667;32;35269;-82
2022/11/02 04:15:26;;;;;;;;;;;;;;;12.53;100.00;100391.50;4483694;32;35763;-82
2022/11/02 04:21:18;;;;;;;;;;;;;;;13.10;100.00;100407.63;4474347;32;35667;-82
2022/11/02 04:27:14;;;;;;;;;;;;;;;12.54;100.00;100409.59;4480292;31;35440;-82
2022/11/02 04:30:06;;;;;;;;;;;;;;;11.00;100.00;100421.47;4467974;32;35203;-82
2022/11/02 04:36:01;;;;;;;;;;;;;;;11.44;100.00;100417.53;4482058;32;34058;-82
2022/11/02 04:38:48;;;;;;;;;;;;;;;10.80;100.00;100417.06;4468911;32;35528;-82
2022/11/02 04:41:41;;;;;;;;;;;;;;;11.59;100.00;100417.31;4468490;31;35192;-81
2022/11/02 04:44:28;;;;;;;;;;;;;;;11.65;100.00;100407.06;4483236;32;35687;-82
2022/11/02 04:47:16;;;;;;;;;;;;;;;11.95;100.00;100419.50;4459048;32;34042;-82
2022/11/02 04:50:03;;;;;;;;;;;;;;;12.44;100.00;100426.31;4469130;32;34932;-82
2022/11/02 04:52:57;;;;;;;;;;;;;;;12.15;100.00;100416.41;4470563;32;34642;-82
2022/11/02 04:55:46;;;;;;;;;;;;;;;11.92;100.00;100420.09;4470679;32;35677;-82
2022/11/02 04:58:33;;;;;;;;;;;;;;;11.76;100.00;100418.72;4481372;32;35133;-82
2022/11/02 05:01:24;;;;;;;;;;;;;;;12.20;100.00;100426.47;4470048;32;34867;-83
2022/11/02 05:04:14;;;;;;;;;;;;;;;11.34;100.00;100429.50;4447184;32;36165;-82
2022/11/02 05:07:05;;;;;;;;;;;;;;;10.67;100.00;100417.75;4482222;32;34967;-82
2022/11/02 05:09:51;;;;;;;;;;;;;;;10.87;100.00;100424.91;4481915;32;34522;-82
2022/11/02 05:12:37;;;;;;;;;;;;;;;11.50;100.00;100432.84;4448521;32;34979;-83
2022/11/02 05:15:23;;;;;;;;;;;;;;;11.24;100.00;100424.97;4479532;31;35221;-82
2022/11/02 05:18:10;;;;;;;;;;;;;;;11.48;100.00;100424.88;4480390;32;34374;-84
2022/11/02 05:21:04;;;;;;;;;;;;;;;11.26;100.00;100425.47;4468329;32;34126;-84
2022/11/02 05:23:54;;;;;;;;;;;;;;;11.31;100.00;100429.28;4458524;32;34928;-83
2022/11/02 05:26:44;;;;;;;;;;;;;;;11.45;100.00;100432.91;4469581;32;35124;-84
2022/11/02 05:29:41;;;;;;;;;;;;;;;11.10;100.00;100426.81;4479406;31;34863;-84
2022/11/02 05:32:28;;;;;;;;;;;;;;;11.11;100.00;100436.69;4462636;32;32783;-84
2022/11/02 05:35:15;;;;;;;;;;;;;;;12.11;100.00;100440.09;4479159;32;33842;-84
2022/11/02 05:38:03;;;;;;;;;;;;;;;12.23;100.00;100430.53;4478960;32;35286;-84
2022/11/02 05:40:53;;;;;;;;;;;;;;;12.63;100.00;100431.69;4479302;31;34465;-85
2022/11/02 05:43:41;;;;;;;;;;;;;;;12.73;100.00;100428.75;4468542;32;34076;-84
2022/11/02 05:46:28;;;;;;;;;;;;;;;12.90;100.00;100424.59;4476065;31;34579;-85
2022/11/02 05:49:14;;;;;;;;;;;;;;;13.27;100.00;100412.50;4455957;31;34831;-81
2022/11/02 05:52:01;;;;;;;;;;;;;;;13.10;100.00;100421.38;4461478;31;34622;-77
2022/11/02 05:54:55;;;;;;;;;;;;;;;13.11;100.00;100419.44;4452747;32;33636;-78
2022/11/02 05:57:41;;;;;;;;;;;;;;;13.04;100.00;100417.13;4447889;32;34520;-81
2022/11/02 06:00:29;;;;;;;;;;;;;;;12.98;100.00;100413.66;4453826;32;33147;-81
2022/11/02 06:03:17;;;;;;;;;;;;;;;12.83;100.00;100420.31;4464068;32;33278;-77
2022/11/02 06:06:05;;;;;;;;;;;;;;;13.13;100.00;100415.25;4451386;32;33501;-77
2022/11/02 06:08:51;;;;;;;;;;;;;;;13.46;100.00;100424.19;4451749;31;35492;-77
2022/11/02 06:11:37;;;;;;;;;;;;;;;13.57;100.00;100424.72;4461055;31;35641;-79
2022/11/02 06:14:25;;;;;;;;;;;;;;;13.58;100.00;100422.81;4406433;31;1867680;-77
2022/11/02 06:17:12;;;;;;;;;;;;;;;13.66;100.00;100416.53;4454398;32;33407;-76
2022/11/02 06:20:01;;;;;;;;;;;;;;;13.64;100.00;100421.56;4464022;31;34618;-77
2022/11/02 06:22:48;;;;;;;;;;;;;;;13.27;100.00;100420.78;4463215;31;35899;-84
2022/11/02 06:25:35;;;;;;;;;;;;;;;12.83;100.00;100435.97;4453988;32;34261;-85
2022/11/02 06:28:22;;;;;;;;;;;;;;;13.18;100.00;100450.13;4452849;32;32553;-86
2022/11/02 06:31:12;;;;;;;;;;;;;;;12.61;100.00;100453.22;4465686;31;34582;-86
2022/11/02 06:34:00;;;;;;;;;;;;;;;13.18;100.00;100444.63;4452700;31;34862;-82
2022/11/02 06:36:46;;;;;;;;;;;;;;;13.50;100.00;100447.19;4465847;31;34502;-80
2022/11/02 06:39:33;;;;;;;;;;;;;;;13.07;100.00;100459.72;4464533;32;34946;-79
2022/11/02 06:42:20;;;;;;;;;;;;;;;13.15;100.00;100461.72;4464371;31;34545;-80
2022/11/02 06:45:07;;;;;;;;;;;;;;;13.32;100.00;100466.59;4442905;32;34698;-80
2022/11/02 06:47:54;;;;;;;;;;;;;;;13.63;100.00;100472.25;4454529;31;35130;-80
2022/11/02 06:50:40;;;;;;;;;;;;;;;13.71;100.00;100479.75;4462974;31;34705;-79
2022/11/02 06:53:27;;;;;;;;;;;;;;;13.80;100.00;100482.59;4464899;32;35307;-80
2022/11/02 06:56:25;;;;;;;;;;;;;;;13.89;100.00;100477.97;4462024;31;35251;-79
2022/11/02 06:59:14;;;;;;;;;;;;;;;13.97;100.00;100473.63;4454951;32;34712;-80
2022/11/02 07:02:00;;;;;;;;;;;;;;;13.78;100.00;100460.06;4463863;31;33614;-81
2022/11/02 07:04:47;;;;;;;;;;;;;;;14.01;100.00;100467.19;4465754;32;35558;-83
2022/11/02 07:07:36;;;;;;;;;;;;;;;14.43;100.00;100461.44;4464832;31;35100;-81
2022/11/02 07:10:23;;;;;;;;;;;;;;;14.07;100.00;100470.63;4464059;32;35399;-80
2022/11/02 07:13:09;;;;;;;;;;;;;;;13.39;100.00;100467.81;4464652;31;33937;-81
2022/11/02 07:16:04;;;;;;;;;;;;;;;13.97;100.00;100471.69;4451467;31;33455;-81
2022/11/02 07:18:54;;;;;;;;;;;;;;;12.80;100.00;100459.41;4463633;32;34641;-81
2022/11/02 07:21:42;;;;;;;;;;;;;;;12.55;100.00;100460.75;4461851;31;35643;-80
2022/11/02 07:24:33;;;;;;;;;;;;;;;12.76;100.00;100465.84;4453914;31;34056;-81
2022/11/02 07:27:21;;;;;;;;;;;;;;;13.23;100.00;100463.75;4462008;31;35200;-80
2022/11/02 07:30:16;;;;;;;;;;;;;;;12.56;100.00;100461.53;4456827;31;35667;-80
2022/11/02 07:33:09;;;;;;;;;;;;;;;13.18;100.00;100466.63;4441784;32;34854;-80
2022/11/02 07:35:58;;;;;;;;;;;;;;;12.99;100.00;100469.50;4464554;32;33338;-79
2022/11/02 07:38:44;;;;;;;;;;;;;;;12.47;100.00;100480.69;4452580;32;33402;-80
2022/11/02 07:41:35;;;;;;;;;;;;;;;12.27;100.00;100481.88;4454141;32;34555;-80
2022/11/02 07:44:23;;;;;;;;;;;;;;;12.63;100.00;100477.63;4464161;31;36019;-78
2022/11/02 07:47:11;;;;;;;;;;;;;;;12.53;100.00;100490.47;4465023;32;33698;-78
2022/11/02 07:50:09;;;;;;;;;;;;;;;12.60;100.00;100479.84;4465633;32;34615;-81
2022/11/02 07:52:57;;;;;;;;;;;;;;;12.20;100.00;100484.16;4464264;32;34800;-80
2022/11/02 07:55:58;;;;;;;;;;;;;;;12.59;100.00;100481.00;4457796;32;34578;-79
2022/11/02 07:58:52;;;;;;;;;;;;;;;12.50;100.00;100473.75;4465536;31;33501;-77
2022/11/02 08:01:38;;;;;;;31.52;17.90;;;;;;;12.32;100.00;100469.94;4466343;31;33212;-78
2022/11/02 08:04:27;;;;;;;36.55;23.02;;;;;;;12.14;100.00;100475.19;4464161;31;34356;-77
2022/11/02 08:07:15;;;;;;;34.20;22.07;;;;;;;12.08;100.00;100475.59;4465477;32;33787;-78
2022/11/02 08:10:05;;;;;;;32.08;18.37;;;;;;;12.18;100.00;100469.09;4466424;32;34186;-81
2022/11/02 08:12:56;;;;;;;;;;;;;;;12.18;100.00;100474.59;4473822;31;34278;-82
2022/11/02 08:15:49;;;;;;;;;;;;;;;12.12;100.00;100476.59;4465343;32;34807;-80
2022/11/02 08:18:35;;;;;;;;;;;;;;;12.40;100.00;100474.75;4469667;32;35701;-79
2022/11/02 08:21:21;;;;;;;;;;;;;;;12.41;100.00;100478.31;4477906;31;34649;-85
2022/11/02 08:24:10;;;;;;;;;;;;;;;12.36;100.00;100468.25;4479746;31;34471;-83
2022/11/02 08:26:58;;;;;;;;;;;;;;;12.78;100.00;100471.84;4469189;32;35163;-81
2022/11/02 08:29:46;;;;;;;;;;;;;;;12.68;100.00;100467.34;4468287;32;34800;-81
2022/11/02 08:32:32;;;;;;;;;;;;;;;12.60;100.00;100474.37;4479723;32;34337;-82
2022/11/02 08:35:18;;;;;;;;;;;;;;;12.90;100.00;100471.34;4480700;31;35924;-82
2022/11/02 08:38:13;;;;;;;;;;;;;;;12.62;100.00;100473.25;4469754;32;36169;-82
2022/11/02 08:41:01;;;;;;;;;;;;;;;12.81;100.00;100474.00;4477469;31;35519;-83
2022/11/02 08:43:50;;;;;;;;;;;;;;;12.97;100.00;100472.53;4469221;32;33833;-81
2022/11/02 08:46:36;;;;;;;;;;;;;;;13.11;100.00;100479.97;4478564;31;34604;-79
2022/11/02 08:49:23;;;;;;;;;;;;;;;13.04;100.00;100472.94;4466646;31;35241;-79
2022/11/02 08:52:09;;;;;;;;;;;;;;;13.21;100.00;100471.50;4457659;32;34578;-79
2022/11/02 08:55:00;;;;;;;;;;;;;;;13.09;100.00;100474.78;4468871;32;33796;-77
2022/11/02 08:57:53;;;;;;;;;;;;;;;13.33;100.00;100466.31;4478905;31;35751;-76
2022/11/02 09:00:41;;;;;;;;;;;;;;;13.63;100.00;100461.22;4481182;32;35187;-76
2022/11/02 09:03:29;;;;;;;;;;;;;;;13.68;100.00;100458.34;4481039;32;34790;-75
2022/11/02 09:06:19;;;;;;;;;;;;;;;13.49;100.00;100462.09;4480003;32;33697;-75
2022/11/02 09:09:09;;;;;;;;;;;;;;;14.02;100.00;100460.56;4468044;32;34644;-78
2022/11/02 09:11:55;;;;;;;;;;;;;;;13.95;100.00;100447.22;4467448;32;35113;-77
2022/11/02 09:14:41;;;;;;;;;;;;;;;13.82;100.00;100459.12;4468692;32;35399;-75
2022/11/02 09:17:28;;;;;;;;;;;;;;;13.70;100.00;100467.13;4478771;32;34201;-75
2022/11/02 09:20:17;;;;;;;;;;;;;;;13.75;100.00;100464.25;4475486;31;35646;-77
2022/11/02 09:23:07;;;;;;;;;;;;;;;14.12;100.00;100459.50;4464794;32;35184;-77
2022/11/02 09:25:54;;;;;;;23.90;14.57;;;;;;;14.41;100.00;100459.00;4480306;32;35703;-76
2022/11/02 09:28:41;;;;;;;24.95;13.82;;;;;;;13.93;100.00;100468.75;4478014;31;34061;-77
2022/11/02 09:31:28;;;;;;;23.85;14.90;;;;;;;13.85;100.00;100461.25;4478615;31;36001;-77
2022/11/02 09:34:16;;;;;;;24.12;13.93;;;;;;;14.09;100.00;100457.37;4468039;32;34969;-77
2022/11/02 09:37:11;;;;;;;25.98;14.98;;;;;;;14.31;100.00;100462.81;4479934;32;34831;-77
2022/11/02 09:40:00;;;;;;;22.80;13.77;;;;;;;14.24;100.00;100456.97;4479126;31;35356;-75
2022/11/02 09:43:05;;;;;;;26.20;14.90;;;;;;;14.29;100.00;100456.84;4465313;32;34687;-76
2022/11/02 09:46:02;;;;;;;28.70;14.55;;;;;;;14.06;100.00;100453.31;4480220;32;35890;-77
2022/11/02 09:49:11;;;;;;;26.67;14.80;;;;;;;14.57;100.00;100456.66;4478501;31;35061;-79
2022/11/02 09:52:06;;;;;;;27.40;14.93;;;;;;;14.60;100.00;100443.06;4468652;32;33785;-79
2022/11/02 09:54:55;;;;;;;22.20;13.50;;;;;;;14.79;100.00;100448.31;4468753;32;35523;-77
2022/11/02 09:57:44;;;;;;;28.65;14.50;;;;;;;14.33;100.00;100452.31;4478680;32;34589;-78
2022/11/02 10:00:35;;;;;;;26.87;14.25;;;;;;;14.59;100.00;100454.41;4466950;32;34568;-80
2022/11/02 10:03:51;;;;;;;27.60;15.50;;;;;;;15.00;100.00;100447.75;4467940;32;33704;-77
2022/11/02 10:06:45;;;;;;;29.75;15.60;;;;;;;14.36;100.00;100450.87;4478241;32;35279;-77
2022/11/02 10:09:43;;;;;;;29.12;16.12;;;;;;;13.82;100.00;100453.59;4453127;31;34297;-77
2022/11/02 10:12:55;;;;;;;26.27;15.70;;;;;;;14.26;100.00;100443.69;4463705;31;35093;-78
2022/11/02 10:16:07;;;;;;;;;;;;;;;14.10;100.00;100447.97;4479903;32;34307;-78
2022/11/02 10:18:55;;;;;;;;;;;;;;;14.36;100.00;100439.84;4465817;32;35274;-75
2022/11/02 10:21:53;;;;;;;25.25;14.57;;;;;;;14.99;100.00;100437.81;4479266;32;35229;-75
2022/11/02 10:24:44;;;;;;;26.48;15.57;;;;;;;14.82;100.00;100433.06;4479453;32;35121;-75
2022/11/02 10:27:37;;;;;;;29.15;16.12;;;;;;;14.80;100.00;100438.94;4467797;32;33796;-75
2022/11/02 10:30:27;;;;;;;;;;;;;;;14.73;100.00;100430.28;4466857;32;34298;-77
2022/11/02 10:33:16;;;;;;;;;;;;;;;15.05;100.00;100439.28;4475774;31;35160;-75
2022/11/02 10:36:07;;;;;;;;;;;;;;;15.24;100.00;100430.72;4466987;32;35938;-75
2022/11/02 10:39:17;;;;;;;;;;;;;;;15.14;100.00;100437.37;4480317;32;33124;-74
2022/11/02 10:42:07;;;;;;;;;;;;;;;15.58;100.00;100435.47;4467734;32;34646;-79
2022/11/02 10:45:03;;;;;;;;;;;;;;;15.68;100.00;100443.47;4457035;32;36649;-79
2022/11/02 10:48:22;;;;;;;26.92;12.25;;;;;;;15.37;100.00;100440.81;4467408;32;34826;-80
2022/11/02 10:51:12;;;;;;;21.77;13.85;;;;;;;15.25;100.00;100438.72;4467524;32;35201;-79
2022/11/02 10:53:59;;;;;;;23.12;13.93;;;;;;;15.66;100.00;100434.66;4467092;32;34662;-78
2022/11/02 10:56:48;;;;;;;22.90;13.15;;;;;;;15.92;100.00;100442.12;4478000;32;34504;-80
2022/11/02 10:59:34;;;;;;;22.40;13.38;;;;;;;16.25;100.00;100442.41;4464367;31;36774;-75
2022/11/02 11:02:27;;;;;;;23.45;12.95;;;;;;;16.27;100.00;100439.28;4465582;32;33539;-77
2022/11/02 11:05:19;;;;;;;21.48;13.65;;;;;;;16.60;100.00;100437.56;4467227;32;34633;-76
2022/11/02 11:08:05;;;;;;;22.70;13.88;;;;;;;16.12;100.00;100438.69;4466103;31;34443;-75
2022/11/02 11:10:53;;;;;;;22.60;12.48;;;;;;;16.30;100.00;100438.62;4478535;32;35507;-77
2022/11/02 11:13:45;;;;;;;24.17;12.65;;;;;;;16.67;100.00;100442.56;4479281;32;34193;-77
2022/11/02 11:16:57;;;;;;;21.35;12.57;;;;;;;16.79;100.00;100444.66;4478324;32;34643;-75
2022/11/02 11:20:07;;;;;;;20.85;12.37;;;;;;;16.49;100.00;100446.56;4468225;32;34928;-76
2022/11/02 11:23:19;;;;;;;22.05;12.63;;;;;;;17.03;100.00;100439.31;4455330;32;34523;-76
2022/11/02 11:26:25;;;;;;;20.52;12.65;;;;;;;16.59;100.00;100447.00;4471417;31;34024;-75
2022/11/02 11:29:20;;;;;;;20.60;13.20;;;;;;;16.73;100.00;100451.50;4464823;32;35170;-75
2022/11/02 11:32:21;;;;;;;19.98;12.20;;;;;;;16.99;99.59;100434.78;4449657;32;35928;-75
2022/11/02 11:35:22;;;;;;;19.37;12.65;;;;;;;17.20;99.02;100443.13;4466526;32;35187;-75
2022/11/02 11:38:14;;;;;;;21.33;13.25;;;;;;;17.23;97.73;100453.53;4468374;32;34340;-76
2022/11/02 11:41:02;;;;;;;24.48;12.75;;;;;;;16.54;100.00;100451.91;4478075;31;35433;-76
2022/11/02 11:46:47;;;;;;;21.87;13.00;;;;;;;17.29;99.82;100444.69;4468747;32;34552;-76
2022/11/02 11:49:45;;;;;;;28.65;13.00;;;;;;;16.86;100.00;100440.22;4467699;31;34071;-75
2022/11/02 11:53:20;;;;;;;21.80;12.52;;;;;;;17.19;100.00;100447.88;4470337;32;35543;-76
2022/11/02 11:56:25;;;;;;;19.23;12.48;;;;;;;17.05;100.00;100437.03;4479583;32;35745;-74
2022/11/02 11:59:20;;;;;;;20.90;11.93;;;;;;;16.77;100.00;100441.44;4468011;32;35009;-73
2022/11/02 12:02:23;;;;;;;19.70;11.10;;;;;;;17.29;100.00;100433.59;4468365;32;35842;-73
2022/11/02 12:05:15;;;;;;;17.15;10.70;;;;;;;17.70;96.23;100422.84;4467232;32;34350;-74
2022/11/02 12:08:11;;;;;;;20.55;10.55;;;;;;;17.35;96.65;100414.03;4467864;32;34979;-74
2022/11/02 12:11:21;;;;;;;17.35;10.60;;;;;;;17.81;95.43;100403.88;4466380;32;34543;-74
2022/11/02 12:14:30;;;;;;;12.48;7.78;;;;;;;18.00;94.02;100398.62;4478682;31;33949;-75
2022/11/02 12:17:42;;;;;;;14.07;8.07;;;;;;;17.89;91.14;100398.22;4479233;32;34682;-76
2022/11/02 12:20:39;;;;;;;16.92;9.98;;;;;;;17.44;95.02;100395.38;4479958;32;35082;-75
2022/11/02 12:23:29;;;;;;;18.48;9.15;;;;;;;17.93;92.45;100388.09;4467498;32;35583;-75
2022/11/02 12:26:33;;;;;;;16.00;9.48;;;;;;;17.28;95.38;100384.09;4480095;32;35665;-78
2022/11/02 12:29:36;;;;;;;16.27;8.90;;;;;;;17.36;95.43;100380.47;4466487;32;36870;-78
2022/11/02 12:32:36;;;;;;;16.25;9.02;;;;;;;17.64;94.46;100380.66;4479243;31;34971;-79
2022/11/02 12:39:07;;;;;;;14.73;7.97;;;;;;;18.09;91.82;100371.59;4470474;31;34453;-75
2022/11/02 12:42:17;;;;;;;13.73;6.50;;;;;;;17.68;91.15;100373.31;4457557;32;34578;-75
2022/11/02 12:45:26;;;;;;;13.38;6.10;;;;;;;18.35;84.54;100373.25;4478514;32;35010;-76
2022/11/02 12:48:27;;;;;;;8.73;4.43;;;;;;;17.66;86.08;100369.25;4480078;31;34208;-76
2022/11/02 12:51:22;;;;;;;8.65;4.90;;;;;;;18.18;80.12;100374.28;4469247;32;34161;-75
2022/11/02 12:54:16;;;;;;;11.43;4.57;;;;;;;18.41;80.78;100363.53;4480329;32;34710;-76
2022/11/02 12:57:03;;;;;;;11.02;4.22;;;;;;;18.01;80.92;100366.16;4468880;32;35993;-78
2022/11/02 13:00:21;;;;;;;10.88;5.03;;;;;;;18.29;79.91;100366.31;4478723;31;33043;-79
2022/11/02 13:03:22;;;;;;;9.70;4.95;;;;;;;18.09;81.84;100362.47;4465396;32;33884;-78
2022/11/02 13:06:21;;;;;;;8.45;4.97;;;;;;;19.02;77.65;100354.41;4479113;31;34365;-80
2022/11/02 13:09:16;;;;;;;12.60;6.82;;;;;;;19.09;79.07;100354.59;4457870;32;34603;-80
2022/11/02 13:12:13;;;;;;;11.25;5.80;;;;;;;18.78;82.24;100350.47;4468209;31;33585;-79
2022/11/02 13:15:06;;;;;;;10.18;5.20;;;;;;;19.68;76.96;100355.94;4468572;32;34229;-78
2022/11/02 13:18:17;;;;;;;7.95;4.50;;;;;;;19.26;79.90;100353.50;4480340;32;34528;-77
2022/11/02 13:21:07;;;;;;;;;;;;;;;19.53;77.61;100352.72;4469193;32;35562;-77
2022/11/02 13:23:57;;;;;;;8.23;4.72;;;;;;;19.43;77.37;100356.00;4468058;32;34949;-76
2022/11/02 13:26:48;;;;;;;8.65;5.45;;;;;;;19.71;76.57;100352.44;4468935;32;34164;-75
2022/11/02 13:29:50;;;;;;;8.38;4.82;;;;;;;18.85;81.42;100356.28;4470319;32;35497;-75
2022/11/02 13:36:05;;;;;;;9.98;5.18;;;;;;;19.48;78.07;100363.28;4479937;32;35702;-75
2022/11/02 13:39:08;;;;;;;10.63;5.12;;;;;;;19.38;78.52;100356.28;4480539;32;34104;-75
2022/11/02 13:42:22;;;;;;;10.32;5.50;;;;;;;18.96;81.35;100362.16;4468588;32;36395;-76
2022/11/02 13:45:40;;;;;;;9.82;5.53;;;;;;;19.69;77.57;100358.34;4479525;31;34607;-76
2022/11/02 13:48:50;;;;;;;12.63;6.03;;;;;;;19.32;79.60;100366.81;4478094;32;34181;-76
2022/11/02 13:51:59;;;;;;;15.52;5.90;;;;;;;19.20;80.39;100368.81;4467301;32;33615;-75
2022/11/02 13:54:49;;;;;;;;;;;;;;;19.29;80.02;100370.28;4480564;32;34659;-75
2022/11/02 13:57:53;;;;;;;10.77;6.03;;;;;;;19.16;81.66;100362.34;4479697;32;36955;-75
2022/11/02 14:00:44;;;;;;;15.02;6.05;;;;;;;19.26;80.58;100368.22;4468685;32;34606;-76
2022/11/02 14:07:15;;;;;;;8.13;4.90;;;;;;;18.34;86.83;100380.78;4475997;31;34891;-76
2022/11/02 14:10:09;;;;;;;9.27;4.72;;;;;;;19.10;81.59;100375.69;4475040;31;34987;-76
2022/11/02 14:12:58;;;;;;;9.00;5.10;;;;;;;18.33;84.70;100384.72;4464146;31;34891;-75
2022/11/02 14:15:51;;;;;;;15.73;4.68;;;;;;;18.21;84.51;100379.13;4467770;32;33582;-76
2022/11/02 14:18:40;;;;;;;13.27;5.60;;;;;;;18.06;85.91;100377.84;4456195;32;34440;-75
2022/11/02 14:21:41;;;;;;;10.55;4.47;;;;;;;17.75;87.89;100376.31;4476499;32;35335;-80
2022/11/02 14:24:35;;;;;;;20.33;6.18;;;;;;;17.76;86.22;100382.69;4478118;31;35489;-78
2022/11/02 14:27:23;;;;;;;;;;;;;;;18.27;83.48;100380.53;4478762;31;35572;-80